createdAt,value
2019-03-15T00:01:38.361Z,7.50
2019-03-15T00:04:06.826Z,9.07
2019-03-15T00:06:35.308Z,8.10
2019-03-15T00:09:05.295Z,9.17
2019-03-15T00:11:33.779Z,10.07
2019-03-15T00:14:02.262Z,7.77
2019-03-15T00:16:30.739Z,10.67
2019-03-15T00:18:59.226Z,7.60
2019-03-15T00:21:29.217Z,5.90
2019-03-15T00:23:57.696Z,7.63
2019-03-15T00:26:26.179Z,4.50
2019-03-15T00:28:54.670Z,5.77
2019-03-15T00:31:23.196Z,8.13
2019-03-15T00:33:51.721Z,9.60
2019-03-15T00:36:20.158Z,8.17
2019-03-15T00:38:48.663Z,9.13
2019-03-15T00:41:17.141Z,12.00
2019-03-15T00:43:49.042Z,10.80
2019-03-15T00:46:15.843Z,6.17
2019-03-15T00:48:44.342Z,10.07
2019-03-15T00:51:12.812Z,7.70
2019-03-15T00:53:41.289Z,10.80
2019-03-15T00:56:09.785Z,10.37
2019-03-15T00:58:38.284Z,8.43
2019-03-15T01:01:06.790Z,11.80
2019-03-15T01:03:35.273Z,11.23
2019-03-15T01:06:03.737Z,10.73
2019-03-15T01:08:32.238Z,10.30
2019-03-15T01:11:00.702Z,8.77
2019-03-15T01:13:29.196Z,10.20
2019-03-15T01:15:57.659Z,7.60
2019-03-15T01:18:26.140Z,11.50
2019-03-15T01:20:54.609Z,9.87
2019-03-15T01:23:23.099Z,5.93
2019-03-15T01:25:51.573Z,8.27
2019-03-15T01:28:20.050Z,8.83
2019-03-15T01:30:48.517Z,10.63
2019-03-15T01:33:17.005Z,8.60
2019-03-15T01:35:45.461Z,11.53
2019-03-15T01:38:13.955Z,12.07
2019-03-15T01:40:42.469Z,8.20
2019-03-15T01:43:10.963Z,11.00
2019-03-15T01:45:39.433Z,13.00
2019-03-15T01:48:07.924Z,16.20
2019-03-15T01:50:36.398Z,9.37
2019-03-15T01:53:04.907Z,9.17
2019-03-15T01:55:33.348Z,8.20
2019-03-15T01:58:01.827Z,9.93
2019-03-15T02:00:30.305Z,10.87
2019-03-15T02:03:02.086Z,12.63
2019-03-15T02:05:29.011Z,13.63
2019-03-15T02:07:57.506Z,13.87
2019-03-15T02:10:25.993Z,10.23
2019-03-15T02:12:54.968Z,11.90
2019-03-15T02:15:23.500Z,14.73
2019-03-15T02:17:52.636Z,9.70
2019-03-15T02:20:22.587Z,13.97
2019-03-15T02:22:51.070Z,12.50
2019-03-15T02:25:19.605Z,8.33
2019-03-15T02:27:48.103Z,12.43
2019-03-15T02:30:16.620Z,11.23
2019-03-15T02:32:45.123Z,13.73
2019-03-15T02:35:13.670Z,10.63
2019-03-15T02:37:42.134Z,16.67
2019-03-15T02:40:10.707Z,14.53
2019-03-15T02:42:39.156Z,14.20
2019-03-15T02:45:08.694Z,9.20
2019-03-15T02:47:37.214Z,13.77
2019-03-15T02:50:07.321Z,9.43
2019-03-15T02:52:35.795Z,9.73
2019-03-15T02:55:05.218Z,15.20
2019-03-15T02:57:35.542Z,9.37
2019-03-15T03:00:05.455Z,6.97
2019-03-15T03:02:33.930Z,6.47
2019-03-15T03:05:02.418Z,12.90
2019-03-15T03:07:30.890Z,12.27
2019-03-15T03:09:59.419Z,9.33
2019-03-15T03:12:27.855Z,6.43
2019-03-15T03:14:56.456Z,10.07
2019-03-15T03:17:26.239Z,8.63
2019-03-15T03:19:54.734Z,7.67
2019-03-15T03:22:23.202Z,6.53
2019-03-15T03:24:51.702Z,8.07
2019-03-15T03:27:20.177Z,8.60
2019-03-15T03:29:48.713Z,9.97
2019-03-15T03:32:17.183Z,6.90
2019-03-15T03:34:45.680Z,7.47
2019-03-15T03:37:14.220Z,7.03
2019-03-15T03:39:42.729Z,10.83
2019-03-15T03:42:11.164Z,7.50
2019-03-15T03:44:39.660Z,12.47
2019-03-15T03:47:08.120Z,7.20
2019-03-15T03:49:36.619Z,10.87
2019-03-15T03:52:05.097Z,10.07
2019-03-15T03:54:33.582Z,8.37
2019-03-15T03:57:02.047Z,10.77
2019-03-15T03:59:30.548Z,9.63
2019-03-15T04:01:59.046Z,9.37
2019-03-15T04:04:27.684Z,6.13
2019-03-15T04:06:56.148Z,9.57
2019-03-15T04:09:24.643Z,10.07
2019-03-15T04:11:55.678Z,11.03
2019-03-15T04:14:23.342Z,10.43
2019-03-15T04:16:51.829Z,10.57
2019-03-15T04:19:20.335Z,9.33
2019-03-15T04:21:48.813Z,11.10
2019-03-15T04:24:17.299Z,13.60
2019-03-15T04:26:45.782Z,6.17
2019-03-15T04:29:14.263Z,10.80
2019-03-15T04:31:42.768Z,11.23
2019-03-15T04:34:11.250Z,8.43
2019-03-15T04:36:39.751Z,10.67
2019-03-15T04:39:08.419Z,7.47
2019-03-15T04:41:36.899Z,13.20
2019-03-15T04:44:05.452Z,12.13
2019-03-15T04:46:33.967Z,11.50
2019-03-15T04:49:02.445Z,14.77
2019-03-15T04:51:30.942Z,9.43
2019-03-15T04:53:59.400Z,6.87
2019-03-15T04:56:27.859Z,10.03
2019-03-15T04:58:56.337Z,5.07
2019-03-15T05:01:24.832Z,10.80
2019-03-15T05:03:53.303Z,9.53
2019-03-15T05:06:21.781Z,8.43
2019-03-15T05:08:50.263Z,9.97
2019-03-15T05:11:18.755Z,10.20
2019-03-15T05:13:47.235Z,9.17
2019-03-15T05:16:15.734Z,8.90
2019-03-15T05:18:44.224Z,7.30
2019-03-15T05:21:12.713Z,6.63
2019-03-15T05:23:41.157Z,9.30
2019-03-15T05:26:09.657Z,6.93
2019-03-15T05:28:38.142Z,10.07
2019-03-15T05:31:06.651Z,12.80
2019-03-15T05:33:35.099Z,7.17
2019-03-15T05:36:03.600Z,12.67
2019-03-15T05:38:34.700Z,10.40
2019-03-15T05:41:02.318Z,11.67
2019-03-15T05:43:30.788Z,9.80
2019-03-15T05:45:59.284Z,10.23
2019-03-15T05:48:27.763Z,12.77
2019-03-15T05:50:56.249Z,9.10
2019-03-15T05:53:24.708Z,9.43
2019-03-15T05:55:53.232Z,10.83
2019-03-15T05:58:22.167Z,8.87
2019-03-15T06:00:50.786Z,10.90
2019-03-15T06:03:19.297Z,12.40
2019-03-15T06:05:47.785Z,7.00
2019-03-15T06:08:16.277Z,7.43
2019-03-15T06:10:44.757Z,8.10
2019-03-15T06:13:13.234Z,9.87
2019-03-15T06:15:41.762Z,10.60
2019-03-15T06:18:10.244Z,10.63
2019-03-15T06:20:38.762Z,12.50
2019-03-15T06:23:07.253Z,12.37
2019-03-15T06:25:35.771Z,17.43
2019-03-15T06:28:04.222Z,11.17
2019-03-15T06:30:32.703Z,12.70
2019-03-15T06:33:01.187Z,9.73
2019-03-15T06:35:29.694Z,7.27
2019-03-15T06:37:58.191Z,10.10
2019-03-15T06:40:26.710Z,11.20
2019-03-15T06:42:55.194Z,10.37
2019-03-15T06:45:23.694Z,8.27
2019-03-15T06:47:52.160Z,8.40
2019-03-15T06:50:20.659Z,7.80
2019-03-15T06:52:49.138Z,10.67
2019-03-15T06:55:17.623Z,10.30
2019-03-15T06:57:46.104Z,12.07
2019-03-15T07:00:16.045Z,8.73
2019-03-15T07:02:44.542Z,10.20
2019-03-15T07:05:13.182Z,9.30
2019-03-15T07:07:41.690Z,10.30
2019-03-15T07:10:11.421Z,11.07
2019-03-15T07:12:40.819Z,12.43
2019-03-15T07:15:14.071Z,10.77
2019-03-15T07:17:42.578Z,12.80
2019-03-15T07:20:15.787Z,11.90
2019-03-15T07:22:44.294Z,13.47
2019-03-15T07:25:12.836Z,14.57
2019-03-15T07:27:42.756Z,9.03
2019-03-15T07:30:16.081Z,14.93
2019-03-15T07:32:44.580Z,9.93
2019-03-15T07:35:13.038Z,10.30
2019-03-15T07:37:41.522Z,9.93
2019-03-15T07:40:12.314Z,14.60
2019-03-15T07:42:40.810Z,15.60
2019-03-15T07:45:11.137Z,12.37
2019-03-15T07:47:39.638Z,9.07
2019-03-15T07:50:13.998Z,9.83
2019-03-15T07:52:41.298Z,10.23
2019-03-15T07:55:10.404Z,8.00
2019-03-15T07:57:38.888Z,10.77
2019-03-15T08:00:13.000Z,10.53
2019-03-15T08:02:41.488Z,9.50
2019-03-15T08:05:10.128Z,9.90
2019-03-15T08:07:44.707Z,8.73
2019-03-15T08:10:11.130Z,9.63
2019-03-15T08:12:39.751Z,9.13
2019-03-15T08:15:13.122Z,9.87
2019-03-15T08:17:41.626Z,10.50
2019-03-15T08:20:12.402Z,6.80
2019-03-15T08:22:40.886Z,8.63
2019-03-15T08:25:11.954Z,11.83
2019-03-15T08:27:40.434Z,9.07
2019-03-15T08:30:11.717Z,10.77
2019-03-15T08:32:43.493Z,7.83
2019-03-15T08:35:11.334Z,10.53
2019-03-15T08:37:39.841Z,11.23
2019-03-15T08:40:10.451Z,11.23
2019-03-15T08:42:40.185Z,12.03
2019-03-15T08:45:17.458Z,11.07
2019-03-15T08:47:45.962Z,10.30
2019-03-15T08:50:19.018Z,17.13
2019-03-15T08:52:47.686Z,11.60
2019-03-15T08:55:16.169Z,10.70
2019-03-15T08:57:44.633Z,8.87
2019-03-15T09:00:19.809Z,10.53
2019-03-15T09:02:48.261Z,13.13
2019-03-15T09:05:17.403Z,11.50
2019-03-15T09:07:45.951Z,10.53
2019-03-15T09:10:23.802Z,11.23
2019-03-15T09:12:51.017Z,9.67
2019-03-15T09:15:19.585Z,14.80
2019-03-15T09:17:48.058Z,9.73
2019-03-15T09:20:16.563Z,11.10
2019-03-15T09:22:45.397Z,14.17
2019-03-15T09:25:20.225Z,15.47
2019-03-15T09:27:48.361Z,13.67
2019-03-15T09:30:23.584Z,10.43
2019-03-15T09:32:47.703Z,10.30
2019-03-15T09:35:16.285Z,12.07
2019-03-15T09:37:47.448Z,10.83
2019-03-15T09:40:16.311Z,12.97
2019-03-15T09:42:45.018Z,8.83
2019-03-15T09:45:18.862Z,12.33
2019-03-15T09:47:47.355Z,14.10
2019-03-15T09:50:26.665Z,10.73
2019-03-15T09:52:46.924Z,12.97
2019-03-15T09:55:15.824Z,13.40
2019-03-15T09:57:44.376Z,12.60
2019-03-15T10:00:17.637Z,9.93
2019-03-15T10:02:46.105Z,10.80
2019-03-15T10:05:14.794Z,14.20
2019-03-15T10:07:44.164Z,10.40
2019-03-15T10:10:19.311Z,10.83
2019-03-15T10:12:48.260Z,12.00
2019-03-15T10:15:17.500Z,9.60
2019-03-15T10:17:47.670Z,11.70
2019-03-15T10:20:16.339Z,9.33
2019-03-15T10:22:44.849Z,10.47
2019-03-15T10:25:17.303Z,11.27
2019-03-15T10:27:45.798Z,12.87
2019-03-15T10:30:15.854Z,10.73
2019-03-15T10:32:44.403Z,11.67
2019-03-15T10:35:13.001Z,10.50
2019-03-15T10:37:41.460Z,12.93
2019-03-15T10:40:15.773Z,8.03
2019-03-15T10:42:44.258Z,11.70
2019-03-15T10:45:12.846Z,8.30
2019-03-15T10:47:42.642Z,10.53
2019-03-15T10:50:16.370Z,10.93
2019-03-15T10:52:44.933Z,11.57
2019-03-15T10:55:13.840Z,9.80
2019-03-15T10:57:42.316Z,12.27
2019-03-15T11:00:20.949Z,12.23
2019-03-15T11:02:49.575Z,12.93
2019-03-15T11:05:18.073Z,10.43
2019-03-15T11:07:46.617Z,11.17
2019-03-15T11:10:15.984Z,10.40
2019-03-15T11:12:44.471Z,9.33
2019-03-15T11:15:14.749Z,11.20
2019-03-15T11:17:43.215Z,7.53
2019-03-15T11:20:12.455Z,12.40
2019-03-15T11:22:40.947Z,8.30
2019-03-15T11:25:10.719Z,8.73
2019-03-15T11:27:39.146Z,11.50
2019-03-15T11:30:10.350Z,11.57
2019-03-15T11:32:38.992Z,10.17
2019-03-15T11:35:08.925Z,8.73
2019-03-15T11:37:37.407Z,10.70
2019-03-15T11:40:13.835Z,11.00
2019-03-15T11:42:41.394Z,10.07
2019-03-15T11:45:10.957Z,9.60
2019-03-15T11:48:00.680Z,10.43
2019-03-15T11:50:17.551Z,10.73
2019-03-15T11:52:46.044Z,11.70
2019-03-15T11:55:14.657Z,12.90
2019-03-15T11:57:43.253Z,7.33
2019-03-15T12:00:18.576Z,11.83
2019-03-15T12:02:47.114Z,14.33
2019-03-15T12:05:15.761Z,13.30
2019-03-15T12:07:44.314Z,10.10
2019-03-15T12:10:16.885Z,10.67
2019-03-15T12:12:45.417Z,12.93
2019-03-15T12:15:18.039Z,9.07
2019-03-15T12:17:46.559Z,9.13
2019-03-15T12:20:15.076Z,5.73
2019-03-15T12:22:43.543Z,7.93
2019-03-15T12:25:12.791Z,8.30
2019-03-15T12:27:41.260Z,10.50
2019-03-15T12:30:16.580Z,10.67
2019-03-15T12:32:45.063Z,10.77
2019-03-15T12:35:14.399Z,9.60
2019-03-15T12:37:42.863Z,13.30
2019-03-15T12:40:14.393Z,13.47
2019-03-15T12:42:42.962Z,11.03
2019-03-15T12:45:14.973Z,10.07
2019-03-15T12:47:43.435Z,7.43
2019-03-15T12:50:14.045Z,8.63
2019-03-15T12:52:47.636Z,7.27
2019-03-15T12:55:13.814Z,7.53
2019-03-15T12:57:43.176Z,10.90
2019-03-15T13:00:15.781Z,9.20
2019-03-15T13:02:44.279Z,7.97
2019-03-15T13:05:12.813Z,8.20
2019-03-15T13:07:41.354Z,11.57
2019-03-15T13:10:12.424Z,8.73
2019-03-15T13:12:40.912Z,12.20
2019-03-15T13:15:14.215Z,10.27
2019-03-15T13:17:42.701Z,7.30
2019-03-15T13:20:17.960Z,8.97
2019-03-15T13:22:46.462Z,7.27
2019-03-15T13:25:15.197Z,7.67
2019-03-15T13:27:43.717Z,5.97
2019-03-15T13:30:14.238Z,4.97
2019-03-15T13:32:42.756Z,5.87
2019-03-15T13:35:11.760Z,6.03
2019-03-15T13:37:42.845Z,4.33
2019-03-15T13:40:12.506Z,4.23
2019-03-15T13:42:41.058Z,4.27
2019-03-15T13:45:11.410Z,2.77
2019-03-15T13:47:39.893Z,4.77
2019-03-15T13:50:11.498Z,4.87
2019-03-15T13:52:39.996Z,3.63
2019-03-15T13:55:08.581Z,4.20
2019-03-15T13:57:37.070Z,5.03
2019-03-15T14:00:17.011Z,6.73
2019-03-15T14:02:45.525Z,3.50
2019-03-15T14:05:13.999Z,6.90
2019-03-15T14:07:42.491Z,5.23
2019-03-15T14:10:12.784Z,6.33
2019-03-15T14:12:41.262Z,4.73
2019-03-15T14:15:18.280Z,5.77
2019-03-15T14:17:46.806Z,5.73
2019-03-15T14:20:15.255Z,3.70
2019-03-15T14:22:43.790Z,4.70
2019-03-15T14:25:17.738Z,4.40
2019-03-15T14:27:46.257Z,3.90
2019-03-15T14:30:15.349Z,9.00
2019-03-15T14:32:43.824Z,5.80
2019-03-15T14:35:12.615Z,5.10
2019-03-15T14:37:41.184Z,4.77
2019-03-15T14:40:11.202Z,5.20
2019-03-15T14:42:39.937Z,4.07
2019-03-15T14:45:15.814Z,6.00
2019-03-15T14:47:44.455Z,5.33
2019-03-15T14:50:14.045Z,3.63
2019-03-15T14:52:42.612Z,5.93
2019-03-15T14:55:12.603Z,3.43
2019-03-15T14:57:51.320Z,3.87
2019-03-15T15:00:14.505Z,4.27
2019-03-15T15:02:42.988Z,4.63
2019-03-15T15:05:12.483Z,4.70
2019-03-15T15:07:41.044Z,3.63
2019-03-15T15:10:14.098Z,3.10
2019-03-15T15:12:42.583Z,5.17
2019-03-15T15:15:15.366Z,5.83
2019-03-15T15:17:43.857Z,5.17
2019-03-15T15:20:13.260Z,3.93
2019-03-15T15:22:41.761Z,6.00
2019-03-15T15:25:12.779Z,5.53
2019-03-15T15:27:41.343Z,4.80
2019-03-15T15:30:14.269Z,3.70
2019-03-15T15:32:42.828Z,5.50
2019-03-15T15:35:13.998Z,4.53
2019-03-15T15:37:42.494Z,3.53
2019-03-15T15:40:13.540Z,5.57
2019-03-15T15:42:42.029Z,5.10
2019-03-15T15:45:11.839Z,4.03
2019-03-15T15:47:40.332Z,4.40
2019-03-15T15:50:11.086Z,4.20
2019-03-15T15:52:39.617Z,3.93
2019-03-15T15:55:12.316Z,5.83
2019-03-15T15:57:40.806Z,5.10
2019-03-15T16:00:17.484Z,4.07
2019-03-15T16:02:45.962Z,3.20
2019-03-15T16:05:14.881Z,3.17
2019-03-15T16:07:43.359Z,3.77
2019-03-15T16:10:13.167Z,3.27
2019-03-15T16:12:42.149Z,4.37
2019-03-15T16:15:20.443Z,2.73
2019-03-15T16:17:48.961Z,4.33
2019-03-15T16:20:17.465Z,2.40
2019-03-15T16:22:45.996Z,3.00
2019-03-15T16:25:14.552Z,2.70
2019-03-15T16:27:43.115Z,2.40
2019-03-15T16:30:19.763Z,3.40
2019-03-15T16:32:48.231Z,2.90
2019-03-15T16:35:17.261Z,2.87
2019-03-15T16:37:45.738Z,5.00
2019-03-15T16:40:16.985Z,5.17
2019-03-15T16:42:45.462Z,3.20
2019-03-15T16:45:19.898Z,3.20
2019-03-15T16:47:48.398Z,3.03
2019-03-15T16:50:16.864Z,4.23
2019-03-15T16:52:45.388Z,3.13
2019-03-15T16:55:15.416Z,3.53
2019-03-15T16:57:43.948Z,3.60
2019-03-15T17:00:16.216Z,3.97
2019-03-15T17:02:46.258Z,3.87
2019-03-15T17:05:15.354Z,3.07
2019-03-15T17:07:43.975Z,6.20
2019-03-15T17:10:19.862Z,4.37
2019-03-15T17:12:48.405Z,3.57
2019-03-15T17:15:26.996Z,4.60
2019-03-15T17:17:55.526Z,2.97
2019-03-15T17:20:23.982Z,2.60
2019-03-15T17:22:52.488Z,3.63
2019-03-15T17:25:21.040Z,3.10
2019-03-15T17:27:49.549Z,3.70
2019-03-15T17:30:18.862Z,2.13
2019-03-15T17:32:47.352Z,2.27
2019-03-15T17:35:18.868Z,5.83
2019-03-15T17:37:47.383Z,3.37
2019-03-15T17:40:17.850Z,3.33
2019-03-15T17:42:46.374Z,3.27
2019-03-15T17:45:14.894Z,4.27
2019-03-15T17:47:43.478Z,6.73
2019-03-15T17:50:16.445Z,2.90
2019-03-15T17:52:44.943Z,4.93
2019-03-15T17:55:14.235Z,5.10
2019-03-15T17:57:45.317Z,4.23
2019-03-15T18:00:17.210Z,10.23
2019-03-15T18:02:45.710Z,5.47
2019-03-15T18:05:14.714Z,6.63
2019-03-15T18:07:43.205Z,3.47
2019-03-15T18:10:11.978Z,7.27
2019-03-15T18:12:40.456Z,3.70
2019-03-15T18:15:10.595Z,3.33
2019-03-15T18:17:39.088Z,3.87
2019-03-15T18:20:09.699Z,4.90
2019-03-15T18:22:38.161Z,5.30
2019-03-15T18:25:08.516Z,2.77
2019-03-15T18:27:36.997Z,3.03
2019-03-15T18:30:11.143Z,4.37
2019-03-15T18:32:39.598Z,5.20
2019-03-15T18:35:09.532Z,5.13
2019-03-15T18:37:38.088Z,5.00
2019-03-15T18:40:14.740Z,3.87
2019-03-15T18:42:43.445Z,1.73
2019-03-15T18:45:14.472Z,6.57
2019-03-15T18:47:43.025Z,6.03
2019-03-15T18:50:24.761Z,3.17
2019-03-15T18:52:53.227Z,9.20
2019-03-15T18:55:21.722Z,8.23
2019-03-15T18:57:50.174Z,5.40
2019-03-15T19:00:20.167Z,2.17
2019-03-15T19:02:48.813Z,4.47
2019-03-15T19:05:17.296Z,3.43
2019-03-15T19:07:45.910Z,8.40
2019-03-15T19:10:15.348Z,2.53
2019-03-15T19:12:43.877Z,4.50
2019-03-15T19:15:19.710Z,2.17
2019-03-15T19:17:48.191Z,2.73
2019-03-15T19:20:17.928Z,4.70
2019-03-15T19:22:46.466Z,5.97
2019-03-15T19:25:15.807Z,4.93
2019-03-15T19:27:44.372Z,3.63
2019-03-15T19:30:15.047Z,6.77
2019-03-15T19:32:43.597Z,4.83
2019-03-15T19:35:12.172Z,6.67
2019-03-15T19:37:40.645Z,3.47
2019-03-15T19:40:12.177Z,2.00
2019-03-15T19:42:40.649Z,5.20
2019-03-15T19:45:14.395Z,5.50
2019-03-15T19:47:43.068Z,4.87
2019-03-15T19:50:22.230Z,3.53
2019-03-15T19:52:50.769Z,8.00
2019-03-15T19:55:19.284Z,6.83
2019-03-15T19:57:47.749Z,5.40
2019-03-15T20:00:17.568Z,3.40
2019-03-15T20:02:46.035Z,4.23
2019-03-15T20:05:14.596Z,5.70
2019-03-15T20:07:43.135Z,3.33
2019-03-15T20:10:16.540Z,5.13
2019-03-15T20:12:43.929Z,5.70
2019-03-15T20:15:14.869Z,4.83
2019-03-15T20:17:43.361Z,6.63
2019-03-15T20:20:13.792Z,5.43
2019-03-15T20:22:42.271Z,5.23
2019-03-15T20:25:12.724Z,7.37
2019-03-15T20:27:41.210Z,6.00
2019-03-15T20:30:25.933Z,5.00
2019-03-15T20:32:51.052Z,7.00
2019-03-15T20:35:19.605Z,4.33
2019-03-15T20:37:48.235Z,4.63
2019-03-15T20:40:16.716Z,7.07
2019-03-15T20:42:45.183Z,5.73
2019-03-15T20:45:32.058Z,6.80
2019-03-15T20:48:00.594Z,6.13
2019-03-15T20:50:29.095Z,7.63
2019-03-15T20:53:07.673Z,8.83
2019-03-15T20:55:28.960Z,12.10
2019-03-15T20:57:57.810Z,5.57
2019-03-15T21:00:35.457Z,7.63
2019-03-15T21:02:56.482Z,7.83
2019-03-15T21:05:24.967Z,6.93
2019-03-15T21:07:53.532Z,8.00
2019-03-15T21:10:22.088Z,8.30
2019-03-15T21:12:50.538Z,5.63
2019-03-15T21:15:19.087Z,5.77
2019-03-15T21:17:47.548Z,8.37
2019-03-15T21:20:17.288Z,9.03
2019-03-15T21:22:45.861Z,6.57
2019-03-15T21:25:14.469Z,10.70
2019-03-15T21:27:52.912Z,8.70
2019-03-15T21:30:23.789Z,6.37
2019-03-15T21:32:52.310Z,8.30
2019-03-15T21:35:20.805Z,6.60
2019-03-15T21:37:49.326Z,8.97
2019-03-15T21:40:19.829Z,9.80
2019-03-15T21:42:48.313Z,6.50
2019-03-15T21:45:16.821Z,8.23
2019-03-15T21:47:45.421Z,4.17
2019-03-15T21:50:19.066Z,9.30
2019-03-15T21:52:47.537Z,11.10
2019-03-15T21:55:16.035Z,7.03
2019-03-15T21:57:44.560Z,9.13
2019-03-15T22:00:15.896Z,8.83
2019-03-15T22:02:44.361Z,8.80
2019-03-15T22:05:12.830Z,7.23
2019-03-15T22:07:41.446Z,7.77
2019-03-15T22:10:12.145Z,7.90
2019-03-15T22:12:40.621Z,9.00
2019-03-15T22:15:10.646Z,7.93
2019-03-15T22:17:39.197Z,13.23
2019-03-15T22:20:10.639Z,10.03
2019-03-15T22:22:39.333Z,10.03
2019-03-15T22:25:09.223Z,10.47
2019-03-15T22:27:38.090Z,9.30
2019-03-15T22:30:10.486Z,7.90
2019-03-15T22:32:39.006Z,9.10
2019-03-15T22:35:08.042Z,8.87
2019-03-15T22:37:36.505Z,7.47
2019-03-15T22:40:08.072Z,7.80
2019-03-15T22:42:36.545Z,7.73
2019-03-15T22:45:07.513Z,12.13
2019-03-15T22:47:36.013Z,10.67
2019-03-15T22:50:06.235Z,9.57
2019-03-15T22:52:34.777Z,8.40
2019-03-15T22:55:03.218Z,13.60
2019-03-15T22:57:31.739Z,8.90
2019-03-15T23:00:00.410Z,11.97
2019-03-15T23:02:28.883Z,6.93
2019-03-15T23:04:57.443Z,8.67
2019-03-15T23:07:25.947Z,7.73
2019-03-15T23:09:54.439Z,10.43
2019-03-15T23:12:22.928Z,6.00
2019-03-15T23:14:51.416Z,10.33
2019-03-15T23:17:19.895Z,10.73
2019-03-15T23:19:48.361Z,5.23
2019-03-15T23:22:16.876Z,12.70
2019-03-15T23:24:45.337Z,5.87
2019-03-15T23:27:13.818Z,8.60
2019-03-15T23:29:42.285Z,13.97
2019-03-15T23:32:10.784Z,13.03
2019-03-15T23:34:39.257Z,9.57
2019-03-15T23:37:07.743Z,7.50
2019-03-15T23:39:36.237Z,10.93
2019-03-15T23:42:04.721Z,12.30
2019-03-15T23:44:33.219Z,11.53
2019-03-15T23:47:01.738Z,8.57
2019-03-15T23:49:30.210Z,9.00
2019-03-15T23:51:58.728Z,12.30
2019-03-15T23:54:27.186Z,14.37
2019-03-15T23:56:55.686Z,9.57
2019-03-15T23:59:24.260Z,10.20
